createdAt,value
2023-12-21T00:02:24.110Z,5.40
2023-12-21T00:04:52.459Z,4.00
2023-12-21T00:07:20.208Z,2.20
2023-12-21T00:09:48.343Z,3.40
2023-12-21T00:12:15.980Z,6.00
2023-12-21T00:14:43.385Z,3.00
2023-12-21T00:17:11.047Z,3.80
2023-12-21T00:19:38.547Z,4.00
2023-12-21T00:22:06.202Z,3.60
2023-12-21T00:24:33.792Z,5.20
2023-12-21T00:27:01.387Z,4.40
2023-12-21T00:29:28.885Z,3.00
2023-12-21T00:31:56.454Z,5.20
2023-12-21T00:34:23.988Z,4.40
2023-12-21T00:36:52.545Z,3.40
2023-12-21T00:39:20.126Z,3.20
2023-12-21T00:41:47.762Z,4.80
2023-12-21T00:44:15.376Z,6.20
2023-12-21T00:46:42.864Z,3.00
2023-12-21T00:49:10.500Z,3.60
2023-12-21T00:51:38.207Z,4.40
2023-12-21T00:54:05.725Z,3.60
2023-12-21T00:56:33.302Z,3.60
2023-12-21T00:59:01.084Z,3.60
2023-12-21T01:01:28.991Z,6.00
2023-12-21T01:03:56.520Z,3.40
2023-12-21T01:06:24.158Z,5.20
2023-12-21T01:08:51.550Z,3.00
2023-12-21T01:11:19.089Z,4.00
2023-12-21T01:13:46.656Z,4.40
2023-12-21T01:16:16.489Z,4.00
2023-12-21T01:18:44.233Z,3.60
2023-12-21T01:21:11.914Z,3.00
2023-12-21T01:23:39.437Z,5.20
2023-12-21T01:26:07.069Z,5.60
2023-12-21T01:28:34.634Z,2.00
2023-12-21T01:31:02.477Z,1.20
2023-12-21T01:33:30.254Z,4.00
2023-12-21T01:35:57.662Z,3.40
2023-12-21T01:38:25.500Z,2.00
2023-12-21T01:40:53.062Z,4.20
2023-12-21T01:43:22.654Z,4.00
2023-12-21T01:45:50.241Z,2.20
2023-12-21T01:48:18.520Z,4.00
2023-12-21T01:50:46.754Z,0.60
2023-12-21T01:53:16.487Z,0.40
2023-12-21T01:55:45.620Z,0.00
2023-12-21T01:58:13.489Z,0.00
2023-12-21T02:00:41.493Z,0.00
2023-12-21T02:03:09.676Z,0.00
2023-12-21T02:05:37.239Z,0.00
2023-12-21T02:08:05.272Z,0.00
2023-12-21T02:10:32.769Z,0.00
2023-12-21T02:13:00.456Z,0.00
2023-12-21T02:15:27.797Z,0.00
2023-12-21T02:17:55.808Z,0.00
2023-12-21T02:20:23.756Z,0.00
2023-12-21T02:22:53.548Z,0.00
2023-12-21T02:25:21.001Z,0.00
2023-12-21T02:27:51.792Z,0.00
2023-12-21T02:30:19.338Z,0.00
2023-12-21T02:32:46.795Z,0.00
2023-12-21T02:35:14.671Z,0.00
2023-12-21T02:37:42.137Z,0.00
2023-12-21T02:40:11.669Z,0.00
2023-12-21T02:42:38.925Z,0.00
2023-12-21T02:45:06.666Z,0.00
2023-12-21T02:47:33.949Z,0.00
2023-12-21T02:50:01.246Z,0.00
2023-12-21T02:52:28.632Z,0.00
2023-12-21T02:54:55.878Z,0.00
2023-12-21T02:57:23.138Z,0.00
2023-12-21T02:59:50.816Z,0.00
2023-12-21T03:02:18.116Z,0.00
2023-12-21T03:04:45.511Z,0.00
2023-12-21T03:07:12.969Z,0.00
2023-12-21T03:09:40.351Z,0.00
2023-12-21T03:12:08.047Z,0.00
2023-12-21T03:14:35.355Z,0.00
2023-12-21T03:17:02.610Z,0.00
2023-12-21T03:19:29.976Z,0.00
2023-12-21T03:21:57.946Z,0.00
2023-12-21T03:24:25.278Z,0.00
2023-12-21T03:26:52.761Z,0.00
2023-12-21T03:29:20.065Z,0.00
2023-12-21T03:31:47.454Z,0.00
2023-12-21T03:34:15.056Z,0.00
2023-12-21T03:36:42.347Z,0.00
2023-12-21T03:39:09.604Z,0.00
2023-12-21T03:41:38.124Z,0.00
2023-12-21T03:44:05.554Z,1.00
2023-12-21T03:46:32.922Z,1.00
2023-12-21T03:49:00.471Z,0.00
2023-12-21T03:51:27.732Z,1.00
2023-12-21T03:53:55.048Z,0.80
2023-12-21T03:56:22.429Z,1.00
2023-12-21T03:58:50.093Z,0.40
2023-12-21T04:01:27.907Z,3.00
2023-12-21T04:03:55.484Z,1.40
2023-12-21T04:06:24.822Z,1.40
2023-12-21T04:08:55.601Z,1.00
2023-12-21T04:11:23.257Z,1.80
2023-12-21T04:13:51.350Z,2.20
2023-12-21T04:16:18.992Z,1.00
2023-12-21T04:18:46.641Z,2.20
2023-12-21T04:21:14.201Z,2.60
2023-12-21T04:23:41.794Z,1.00
2023-12-21T04:26:09.301Z,1.80
2023-12-21T04:28:38.864Z,3.00
2023-12-21T04:31:06.603Z,2.20
2023-12-21T04:33:34.345Z,1.00
2023-12-21T04:36:03.739Z,4.20
2023-12-21T04:38:31.282Z,6.00
2023-12-21T04:40:59.087Z,3.00
2023-12-21T04:43:27.502Z,3.00
2023-12-21T04:45:55.401Z,3.60
2023-12-21T04:48:23.160Z,4.00
2023-12-21T04:50:50.850Z,3.00
2023-12-21T04:53:18.450Z,3.80
2023-12-21T04:55:46.560Z,3.40
2023-12-21T04:58:13.835Z,3.40
2023-12-21T05:00:42.156Z,1.40
2023-12-21T05:03:09.766Z,4.00
2023-12-21T05:05:37.413Z,4.60
2023-12-21T05:08:05.362Z,4.40
2023-12-21T05:10:32.989Z,3.40
2023-12-21T05:13:00.582Z,5.60
2023-12-21T05:15:28.106Z,3.40
2023-12-21T05:17:55.546Z,3.20
2023-12-21T05:20:23.041Z,5.00
2023-12-21T05:22:51.301Z,7.40
2023-12-21T05:25:19.288Z,3.20
2023-12-21T05:27:46.692Z,4.00
2023-12-21T05:30:14.295Z,0.20
2023-12-21T05:32:42.013Z,6.80
2023-12-21T05:35:09.681Z,5.20
2023-12-21T05:37:38.288Z,1.80
2023-12-21T05:40:07.719Z,3.40
2023-12-21T05:42:35.464Z,4.00
2023-12-21T05:45:03.082Z,3.00
2023-12-21T05:47:33.127Z,3.00
2023-12-21T05:50:01.078Z,5.60
2023-12-21T05:52:28.532Z,2.60
2023-12-21T05:54:56.218Z,3.40
2023-12-21T05:57:23.679Z,0.40
2023-12-21T05:59:52.009Z,3.60
2023-12-21T06:02:21.984Z,7.80
2023-12-21T06:04:49.380Z,3.00
2023-12-21T06:07:16.810Z,2.20
2023-12-21T06:09:44.195Z,3.00
2023-12-21T06:12:11.489Z,3.80
2023-12-21T06:14:40.183Z,4.00
2023-12-21T06:17:07.488Z,3.80
2023-12-21T06:19:35.420Z,3.00
2023-12-21T06:22:02.829Z,4.80
2023-12-21T06:24:30.170Z,4.40
2023-12-21T06:26:57.404Z,4.00
2023-12-21T06:29:24.579Z,6.00
2023-12-21T06:31:52.007Z,4.00
2023-12-21T06:34:19.336Z,2.60
2023-12-21T06:36:48.145Z,3.60
2023-12-21T06:39:15.440Z,5.60
2023-12-21T06:41:42.681Z,3.20
2023-12-21T06:44:12.424Z,6.00
2023-12-21T06:46:40.066Z,4.40
2023-12-21T06:49:11.806Z,6.40
2023-12-21T06:51:40.063Z,4.20
2023-12-21T06:54:08.198Z,6.80
2023-12-21T06:56:36.059Z,6.80
2023-12-21T06:59:04.070Z,3.80
2023-12-21T07:01:31.876Z,3.40
2023-12-21T07:04:00.213Z,3.20
2023-12-21T07:06:28.067Z,0.00
2023-12-21T07:08:56.181Z,4.00
2023-12-21T07:11:24.613Z,4.80
2023-12-21T07:13:52.091Z,1.00
2023-12-21T07:16:19.827Z,6.80
2023-12-21T07:18:47.414Z,0.60
2023-12-21T07:21:15.208Z,2.20
2023-12-21T07:23:43.012Z,2.20
2023-12-21T07:26:12.323Z,3.80
2023-12-21T07:28:41.778Z,7.00
2023-12-21T07:31:11.333Z,6.40
2023-12-21T07:33:39.293Z,4.00
2023-12-21T07:36:08.960Z,3.20
2023-12-21T07:38:41.607Z,4.00
2023-12-21T07:41:09.957Z,7.00
2023-12-21T07:43:38.787Z,6.20
2023-12-21T07:46:09.645Z,3.80
2023-12-21T07:48:37.801Z,4.40
2023-12-21T07:51:05.807Z,2.20
2023-12-21T07:53:33.146Z,3.80
2023-12-21T07:56:01.354Z,3.00
2023-12-21T07:58:28.755Z,7.00
2023-12-21T08:00:57.280Z,3.80
2023-12-21T08:03:24.604Z,3.00
2023-12-21T08:05:51.816Z,1.80
2023-12-21T08:08:20.528Z,6.00
2023-12-21T08:10:48.677Z,3.00
2023-12-21T08:13:16.106Z,3.00
2023-12-21T08:15:43.440Z,5.60
2023-12-21T08:18:15.309Z,4.40
2023-12-21T08:20:44.284Z,6.00
2023-12-21T08:23:11.741Z,5.20
2023-12-21T08:25:39.217Z,3.20
2023-12-21T08:28:06.806Z,6.40
2023-12-21T08:30:34.297Z,3.40
2023-12-21T08:33:01.604Z,4.20
2023-12-21T08:35:29.001Z,1.00
2023-12-21T08:37:58.137Z,7.20
2023-12-21T08:40:25.863Z,6.00
2023-12-21T08:42:53.209Z,3.60
2023-12-21T08:45:20.526Z,3.80
2023-12-21T08:47:47.850Z,5.60
2023-12-21T08:50:15.595Z,3.80
2023-12-21T08:52:43.249Z,6.20
2023-12-21T08:55:10.888Z,6.80
2023-12-21T08:57:38.489Z,1.00
2023-12-21T09:00:08.430Z,3.80
2023-12-21T09:02:37.360Z,3.00
2023-12-21T09:05:05.093Z,4.40
2023-12-21T09:07:32.662Z,3.40
2023-12-21T09:10:01.557Z,6.60
2023-12-21T09:12:29.894Z,6.40
2023-12-21T09:14:57.148Z,6.20
2023-12-21T09:17:24.601Z,6.60
2023-12-21T09:19:51.886Z,5.20
2023-12-21T09:22:19.382Z,5.60
2023-12-21T09:24:47.061Z,7.00
2023-12-21T09:27:15.705Z,6.60
2023-12-21T09:29:45.847Z,5.60
2023-12-21T09:32:13.658Z,6.40
2023-12-21T09:34:41.519Z,3.40
2023-12-21T09:37:09.073Z,0.60
2023-12-21T09:39:36.652Z,6.00
2023-12-21T09:42:04.869Z,4.80
2023-12-21T09:44:34.421Z,7.00
2023-12-21T09:47:08.486Z,4.80
2023-12-21T09:49:38.774Z,6.20
2023-12-21T09:52:09.063Z,4.00
2023-12-21T09:54:39.487Z,6.40
2023-12-21T09:57:07.643Z,6.20
2023-12-21T09:59:36.885Z,6.40
2023-12-21T10:02:13.272Z,5.20
2023-12-21T10:04:45.979Z,4.20
2023-12-21T10:07:14.344Z,6.00
2023-12-21T10:09:42.203Z,6.00
2023-12-21T10:12:09.895Z,4.40
2023-12-21T10:14:37.212Z,0.40
2023-12-21T10:17:11.378Z,1.80
2023-12-21T10:19:39.375Z,6.60
2023-12-21T10:22:06.671Z,6.80
2023-12-21T10:24:34.063Z,2.40
2023-12-21T10:27:01.285Z,4.40
2023-12-21T10:29:28.634Z,6.20
2023-12-21T10:31:58.067Z,6.80
2023-12-21T10:34:25.596Z,4.40
2023-12-21T10:36:53.064Z,5.20
2023-12-21T10:39:24.099Z,3.20
2023-12-21T10:41:51.904Z,3.40
2023-12-21T10:44:19.437Z,6.60
2023-12-21T10:46:47.016Z,2.20
2023-12-21T10:49:15.125Z,4.00
2023-12-21T10:51:45.116Z,4.00
2023-12-21T10:54:14.213Z,4.40
2023-12-21T10:56:48.697Z,3.80
2023-12-21T10:59:21.791Z,6.80
2023-12-21T11:01:50.555Z,5.20
2023-12-21T11:04:21.645Z,7.00
2023-12-21T11:06:49.863Z,9.00
2023-12-21T11:09:21.233Z,6.00
2023-12-21T11:11:48.781Z,5.80
2023-12-21T11:14:18.560Z,6.40
2023-12-21T11:17:03.284Z,3.00
2023-12-21T11:19:37.462Z,3.80
2023-12-21T11:22:06.261Z,7.20
2023-12-21T11:24:33.605Z,0.40
2023-12-21T11:27:03.273Z,7.40
2023-12-21T11:29:31.650Z,6.00
2023-12-21T11:31:59.734Z,3.00
2023-12-21T11:34:43.769Z,1.80
2023-12-21T11:37:25.152Z,3.00
2023-12-21T11:39:54.356Z,3.20
2023-12-21T11:42:34.895Z,5.20
2023-12-21T11:45:08.320Z,3.80
2023-12-21T11:47:36.305Z,5.20
2023-12-21T11:50:11.824Z,4.40
2023-12-21T11:52:40.109Z,2.60
2023-12-21T11:55:08.169Z,3.80
2023-12-21T11:57:42.865Z,4.00
2023-12-21T12:00:17.614Z,5.20
2023-12-21T12:02:49.642Z,3.00
2023-12-21T12:05:25.988Z,3.00
2023-12-21T12:07:54.017Z,5.60
2023-12-21T12:10:23.915Z,0.60
2023-12-21T12:12:54.035Z,6.00
2023-12-21T12:15:22.657Z,3.80
2023-12-21T12:17:50.739Z,3.00
2023-12-21T12:20:20.485Z,3.00
2023-12-21T12:22:49.267Z,2.40
2023-12-21T12:25:17.990Z,4.00
2023-12-21T12:27:46.451Z,3.80
2023-12-21T12:30:15.203Z,5.40
2023-12-21T12:32:44.260Z,2.80
2023-12-21T12:35:12.779Z,7.40
2023-12-21T12:37:41.400Z,6.40
2023-12-21T12:40:09.464Z,4.00
2023-12-21T12:42:37.146Z,6.60
2023-12-21T12:45:07.196Z,4.80
2023-12-21T12:47:35.645Z,6.20
2023-12-21T12:50:04.875Z,4.40
2023-12-21T12:52:32.667Z,1.40
2023-12-21T12:55:03.149Z,3.60
2023-12-21T12:57:30.540Z,5.00
2023-12-21T13:00:01.060Z,3.00
2023-12-21T13:02:30.801Z,5.20
2023-12-21T13:05:01.495Z,3.00
2023-12-21T13:07:29.564Z,5.60
2023-12-21T13:10:08.806Z,6.80
2023-12-21T13:12:38.331Z,3.60
2023-12-21T13:15:09.461Z,3.80
2023-12-21T13:17:37.084Z,1.40
2023-12-21T13:20:11.542Z,3.40
2023-12-21T13:22:39.228Z,3.00
2023-12-21T13:25:07.505Z,6.80
2023-12-21T13:27:35.507Z,3.20
2023-12-21T13:30:03.344Z,3.00
2023-12-21T13:32:50.964Z,3.60
2023-12-21T13:35:21.602Z,3.00
2023-12-21T13:37:50.077Z,3.00
2023-12-21T13:40:17.821Z,2.60
2023-12-21T13:42:45.484Z,2.60
2023-12-21T13:45:13.625Z,1.40
2023-12-21T13:47:41.219Z,3.20
2023-12-21T13:50:09.284Z,2.40
2023-12-21T13:52:36.990Z,6.00
2023-12-21T13:55:05.288Z,3.00
2023-12-21T13:57:33.037Z,4.00
2023-12-21T14:00:05.035Z,2.60
2023-12-21T14:02:39.641Z,2.60
2023-12-21T14:05:08.009Z,5.20
2023-12-21T14:07:35.606Z,3.20
2023-12-21T14:10:04.071Z,4.80
2023-12-21T14:12:33.116Z,3.80
2023-12-21T14:15:01.772Z,4.00
2023-12-21T14:17:29.412Z,4.40
2023-12-21T14:19:57.013Z,6.80
2023-12-21T14:22:24.500Z,3.80
2023-12-21T14:24:52.025Z,4.00
2023-12-21T14:27:22.739Z,3.00
2023-12-21T14:29:50.309Z,3.60
2023-12-21T14:32:19.328Z,4.60
2023-12-21T14:34:46.961Z,1.80
2023-12-21T14:37:15.795Z,1.40
2023-12-21T14:39:44.091Z,4.00
2023-12-21T14:42:11.849Z,3.20
2023-12-21T14:44:39.929Z,6.40
2023-12-21T14:47:07.354Z,6.40
2023-12-21T14:49:35.146Z,1.00
2023-12-21T14:52:05.079Z,3.00
2023-12-21T14:54:33.479Z,3.00
2023-12-21T14:57:01.202Z,6.00
2023-12-21T14:59:29.069Z,3.80
2023-12-21T15:01:56.650Z,6.20
2023-12-21T15:04:24.354Z,3.20
2023-12-21T15:06:55.169Z,3.60
2023-12-21T15:09:23.056Z,3.00
2023-12-21T15:11:50.528Z,3.00
2023-12-21T15:14:18.008Z,3.00
2023-12-21T15:16:45.609Z,1.00
2023-12-21T15:19:13.313Z,4.80
2023-12-21T15:21:41.059Z,2.20
2023-12-21T15:24:08.720Z,3.40
2023-12-21T15:26:36.200Z,1.00
2023-12-21T15:29:06.844Z,5.50
2023-12-21T15:31:34.675Z,6.75
2023-12-21T15:34:01.896Z,6.25
2023-12-21T15:36:29.273Z,4.50
2023-12-21T15:38:56.826Z,1.80
2023-12-21T15:41:24.389Z,7.00
2023-12-21T15:43:52.208Z,7.60
2023-12-21T15:46:20.921Z,6.50
2023-12-21T15:48:48.916Z,6.00
2023-12-21T15:51:17.245Z,9.00
2023-12-21T15:53:46.127Z,7.00
2023-12-21T15:56:16.189Z,4.50
2023-12-21T15:58:43.428Z,3.20
2023-12-21T16:01:10.908Z,9.00
2023-12-21T16:03:38.192Z,5.60
2023-12-21T16:06:05.685Z,10.40
2023-12-21T16:08:33.031Z,13.00
2023-12-21T16:11:00.264Z,3.60
2023-12-21T16:13:27.531Z,6.60
2023-12-21T16:15:54.795Z,6.40
2023-12-21T16:18:22.328Z,4.40
2023-12-21T16:20:49.767Z,5.60
2023-12-21T16:23:20.663Z,6.20
2023-12-21T16:25:48.094Z,5.00
2023-12-21T16:28:15.432Z,3.40
2023-12-21T16:30:42.700Z,7.00
2023-12-21T16:33:11.086Z,7.40
2023-12-21T16:35:38.678Z,5.60
2023-12-21T16:38:06.799Z,1.00
2023-12-21T16:40:34.128Z,3.60
2023-12-21T16:43:01.398Z,4.00
2023-12-21T16:45:30.659Z,5.60
2023-12-21T16:47:59.722Z,6.80
2023-12-21T16:50:28.063Z,4.40
2023-12-21T16:52:55.776Z,3.00
2023-12-21T16:55:23.596Z,2.60
2023-12-21T16:57:50.998Z,6.00
2023-12-21T17:00:18.534Z,4.00
2023-12-21T17:02:46.032Z,6.00
2023-12-21T17:05:13.452Z,1.20
2023-12-21T17:07:40.861Z,4.00
2023-12-21T17:10:08.598Z,4.40
2023-12-21T17:12:36.645Z,8.40
2023-12-21T17:15:04.101Z,5.60
2023-12-21T17:17:31.354Z,5.00
2023-12-21T17:19:58.668Z,4.00
2023-12-21T17:22:29.706Z,5.20
2023-12-21T17:24:59.001Z,6.40
2023-12-21T17:27:26.304Z,4.00
2023-12-21T17:29:55.253Z,7.00
2023-12-21T17:32:22.639Z,9.20
2023-12-21T17:34:50.819Z,6.40
2023-12-21T17:37:18.005Z,7.00
2023-12-21T17:39:45.521Z,6.80
2023-12-21T17:42:12.887Z,6.20
2023-12-21T17:44:40.228Z,0.40
2023-12-21T17:47:07.468Z,9.40
2023-12-21T17:49:34.960Z,6.60
2023-12-21T17:52:02.308Z,4.80
2023-12-21T17:54:29.885Z,5.20
2023-12-21T17:56:57.639Z,4.00
2023-12-21T17:59:24.883Z,4.00
2023-12-21T18:01:52.267Z,3.00
2023-12-21T18:04:19.528Z,0.80
2023-12-21T18:06:46.844Z,4.00
2023-12-21T18:09:15.123Z,6.20
2023-12-21T18:11:45.946Z,5.20
2023-12-21T18:14:13.337Z,4.80
2023-12-21T18:16:40.853Z,3.20
2023-12-21T18:19:09.638Z,4.40
2023-12-21T18:21:37.233Z,4.60
2023-12-21T18:24:04.689Z,3.00
2023-12-21T18:26:32.027Z,2.60
2023-12-21T18:28:59.359Z,4.80
2023-12-21T18:31:26.661Z,3.80
2023-12-21T18:33:53.928Z,7.00
2023-12-21T18:36:21.505Z,0.00
2023-12-21T18:38:50.147Z,3.60
2023-12-21T18:41:17.944Z,2.20
2023-12-21T18:43:45.454Z,6.00
2023-12-21T18:46:12.804Z,6.60
2023-12-21T18:48:40.158Z,4.40
2023-12-21T18:51:07.484Z,4.00
2023-12-21T18:53:34.640Z,2.60
2023-12-21T18:56:02.899Z,0.80
2023-12-21T18:58:30.345Z,3.00
2023-12-21T19:00:57.666Z,6.00
2023-12-21T19:03:26.491Z,5.40
2023-12-21T19:05:53.835Z,3.60
2023-12-21T19:08:23.492Z,4.00
2023-12-21T19:10:50.965Z,3.60
2023-12-21T19:13:18.299Z,3.00
2023-12-21T19:15:47.429Z,3.40
2023-12-21T19:18:15.816Z,1.80
2023-12-21T19:20:45.772Z,4.80
2023-12-21T19:23:14.821Z,4.40
2023-12-21T19:25:43.197Z,4.00
2023-12-21T19:28:10.684Z,4.80
2023-12-21T19:30:38.097Z,2.60
2023-12-21T19:33:12.568Z,4.80
2023-12-21T19:35:39.959Z,3.20
2023-12-21T19:38:07.219Z,1.40
2023-12-21T19:40:36.541Z,3.40
2023-12-21T19:43:03.953Z,1.40
2023-12-21T19:45:31.278Z,2.60
2023-12-21T19:47:58.607Z,2.40
2023-12-21T19:50:26.056Z,0.80
2023-12-21T19:52:53.448Z,2.20
2023-12-21T19:55:22.591Z,2.60
2023-12-21T19:57:51.905Z,5.20
2023-12-21T20:00:19.786Z,1.00
2023-12-21T20:02:47.201Z,2.60
2023-12-21T20:05:14.557Z,0.60
2023-12-21T20:07:42.041Z,2.60
2023-12-21T20:10:10.074Z,1.00
2023-12-21T20:12:39.192Z,0.40
2023-12-21T20:15:06.743Z,0.40
2023-12-21T20:17:34.468Z,0.60
2023-12-21T20:20:01.864Z,0.00
2023-12-21T20:22:29.260Z,0.00
2023-12-21T20:24:57.048Z,1.00
2023-12-21T20:27:24.745Z,4.00
2023-12-21T20:29:52.300Z,0.60
2023-12-21T20:32:19.781Z,0.00
2023-12-21T20:34:47.396Z,1.40
2023-12-21T20:37:15.077Z,1.00
2023-12-21T20:39:42.987Z,1.00
2023-12-21T20:42:10.584Z,1.40
2023-12-21T20:44:40.456Z,0.20
2023-12-21T20:47:08.026Z,0.00
2023-12-21T20:49:35.695Z,0.80
2023-12-21T20:52:03.257Z,1.00
2023-12-21T20:54:34.044Z,1.00
2023-12-21T20:57:02.446Z,4.40
2023-12-21T20:59:30.208Z,1.40
2023-12-21T21:01:58.005Z,1.00
2023-12-21T21:04:26.052Z,0.00
2023-12-21T21:06:53.590Z,1.00
2023-12-21T21:09:21.728Z,1.20
2023-12-21T21:11:49.248Z,0.60
2023-12-21T21:14:16.779Z,0.00
2023-12-21T21:16:44.361Z,0.40
2023-12-21T21:19:12.142Z,1.00
2023-12-21T21:21:39.897Z,0.00
2023-12-21T21:24:07.711Z,0.00
2023-12-21T21:26:35.429Z,0.00
2023-12-21T21:29:03.067Z,1.00
2023-12-21T21:31:30.507Z,0.20
2023-12-21T21:33:58.148Z,0.00
2023-12-21T21:36:26.350Z,0.00
2023-12-21T21:38:53.726Z,0.00
2023-12-21T21:41:21.485Z,0.00
2023-12-21T21:43:49.224Z,0.00
2023-12-21T21:46:17.854Z,0.00
2023-12-21T21:48:45.716Z,0.40
2023-12-21T21:51:16.290Z,0.00
2023-12-21T21:53:45.819Z,0.00
2023-12-21T21:56:13.377Z,1.00
2023-12-21T21:58:40.991Z,0.00
2023-12-21T22:01:08.522Z,0.00
2023-12-21T22:03:37.040Z,0.00
2023-12-21T22:06:05.580Z,0.00
2023-12-21T22:08:33.336Z,0.00
2023-12-21T22:11:01.028Z,0.00
2023-12-21T22:13:30.133Z,0.00
2023-12-21T22:15:57.794Z,0.00
2023-12-21T22:18:25.676Z,1.00
2023-12-21T22:20:53.222Z,0.00
2023-12-21T22:23:20.858Z,0.00
2023-12-21T22:25:48.494Z,0.40
2023-12-21T22:28:16.439Z,0.60
2023-12-21T22:30:43.949Z,0.80
2023-12-21T22:33:11.638Z,0.00
2023-12-21T22:35:39.263Z,1.00
2023-12-21T22:38:06.979Z,0.00
2023-12-21T22:40:34.565Z,0.00
2023-12-21T22:43:02.183Z,0.00
2023-12-21T22:45:29.767Z,0.20
2023-12-21T22:47:58.092Z,0.00
2023-12-21T22:50:26.100Z,0.00
2023-12-21T22:52:53.676Z,0.00
2023-12-21T22:55:21.460Z,0.20
2023-12-21T22:57:49.213Z,0.00
2023-12-21T23:00:19.989Z,0.00
2023-12-21T23:02:48.122Z,0.00
2023-12-21T23:05:16.199Z,0.00
2023-12-21T23:07:45.473Z,0.00
2023-12-21T23:10:13.643Z,0.20
2023-12-21T23:12:45.410Z,0.00
2023-12-21T23:15:15.348Z,0.00
2023-12-21T23:17:43.237Z,0.00
2023-12-21T23:20:11.282Z,0.00
2023-12-21T23:22:39.051Z,0.00
2023-12-21T23:25:07.369Z,0.00
2023-12-21T23:27:35.195Z,0.00
2023-12-21T23:30:04.610Z,0.00
2023-12-21T23:32:33.299Z,0.00
2023-12-21T23:35:12.623Z,0.00
2023-12-21T23:37:48.231Z,0.00
2023-12-21T23:40:16.430Z,0.00
2023-12-21T23:42:44.116Z,0.00
2023-12-21T23:45:12.273Z,0.00
2023-12-21T23:47:39.901Z,0.00
2023-12-21T23:50:08.097Z,0.00
2023-12-21T23:52:35.798Z,0.00
2023-12-21T23:55:03.564Z,0.00
2023-12-21T23:57:31.247Z,0.00
2023-12-21T23:59:58.908Z,0.00
